Farmville, VA

2:59 PM EDT on March 24, 2017 (GMT -0400)
HSC Athletics | | Change Station

Elev 515 ft 37.25 °N, 78.46 °W | Updated 3 seconds ago

Mostly Cloudy
Mostly Cloudy
64.5 °F
Feels Like 64.5 °F
N
11.0
Wind Variable Wind from SSW
Gusts 19.0 mph

Today
High -- | Low -- °F
--% Chance of Precip.
Yesterday
High -- | Low -- °F
Precip. -- in
Pressure 30.33 in
Visibility 10.0 miles
Clouds Scattered Clouds 9500 ft
Overcast 11000 ft
Dew Point 45 °F
Humidity 49%
Rainfall 0.00 in
Snow Depth Not available.
7:10 AM 7:29 PM
Waning Crescent, 13% visible
METAR KFVX 241835Z AUTO 21012KT 10SM SCT095 OVC110 18/06 A3033 RMK AO2 T01760057
Pressure 30.33 in
Visibility 10.0 miles
Clouds Scattered Clouds 9500 ft
Overcast 11000 ft
Dew Point 45 °F
Humidity 49%
Rainfall 0.00 in
Snow Depth Not available.
7:10 AM 7:29 PM
Waning Crescent, 13% visible
METAR KFVX 241835Z AUTO 21012KT 10SM SCT095 OVC110 18/06 A3033 RMK AO2 T01760057

Get Severe Weather Alerts

Thanks for signing up!

Be on the lookout for a verification email in your inbox.

You'll start receiving the daily forecast at 8 AM.

×

10-Day Weather Forecast

Almanac

Astronomy

Mar. 24, 2017 Rise Set
Actual Time
Civil Twilight
Nautical Twilight
Astronomical Twilight
Moon
Length of Visible Light
Length of Day
Tomorrow will be .
, % of the Moon is Illuminated

Today's Extremes

State Highs State Lows

Community

WunderPhotos

Upload Photos

1,962,540 photos uploaded!

WunderBlog® & News

Nearby

Air Quality

  Air Quality AQ Index Pollutant
Not available.

Snow Depth

Station Depth Elevation

Earthquake Activity

City Distance Mag. Time & Date
Minimum magnitude displayed is 2.5.

Earthquake Activity

City Distance Mag. Time & Date
Minimum magnitude displayed is 2.5.

Coastal Water Temperatures

Place Temperature

Stations

Nearby Weather Stations

Station Location Temp. Windchill Dew Point Humidity Wind Precip. Elev Updated Type
                   

Watches & Warnings

There are currently no watches in effect.